모두
Cowell Airport (Cowell, South Australia) YCWL 기상
There is no TAF data available at YCWL or any nearby airports.
There is no METAR data available at YCWL. Showing METAR data for YCEE (22 mi 서).
최근 CVC METAR 이력(YCWL에 대한 데이터 없음)
| Date | Time (ACST) | Flight Rules | Wind Dir. | Speed | Type | Height AGL (ft) | Visibility | Temp (°C) | Temp (°F) | Dew Point (°C) | Dew Point (°F) | Rel. Humid. | Pressure | Density Altitude | Remarks |
|---|---|---|---|---|---|---|---|---|---|---|---|---|---|---|---|
| 03-5월 | 13:36 | n/a | 300° | 18 kt | Missing | 16° | 60° | 10° | 50° | 68% | 1011 mb | 774 ft | Wind gusting to 28 KT | ||
| 03-5월 | 12:34 | n/a | 300° | 19 kt | Missing | 16° | 60° | 11° | 51° | 72% | 1011 mb | 774 ft | Wind gusting to 29 KT | ||
| 03-5월 | 11:30 | n/a | 300° | 21 kt | Missing | 15° | 59° | 10° | 50° | 72% | 1012 mb | 625 ft | |||
| 03-5월 | 10:34 | n/a | 300° | 16 kt | Missing | 15° | 59° | 10° | 50° | 72% | 1012 mb | 625 ft | Wind gusting to 26 KT | ||
| 03-5월 | 09:30 | n/a | 310° | 19 kt | Missing | 13° | 55° | 9° | 48° | 77% | 1012 mb | 385 ft | |||
| 03-5월 | 08:30 | n/a | 320° | 17 kt | Missing | 12° | 53° | 9° | 48° | 82% | 1012 mb | 265 ft | |||
| 03-5월 | 07:30 | n/a | 320° | 17 kt | Missing | 11° | 51° | 8° | 46° | 82% | 1012 mb | 145 ft | |||
| 03-5월 | 06:30 | n/a | 320° | 16 kt | Missing | 11° | 51° | 8° | 46° | 82% | 1011 mb | 174 ft | |||
| 03-5월 | 05:30 | n/a | 310° | 16 kt | Missing | 11° | 51° | 8° | 46° | 82% | 1011 mb | 174 ft | |||
| 03-5월 | 04:30 | n/a | 320° | 15 kt | Missing | 11° | 51° | 8° | 46° | 82% | 1011 mb | 174 ft | |||
| 03-5월 | 03:30 | n/a | 320° | 13 kt | Missing | 11° | 51° | 8° | 46° | 82% | 1011 mb | 174 ft | |||
| 03-5월 | 02:30 | n/a | 320° | 14 kt | Missing | 12° | 53° | 9° | 48° | 82% | 1011 mb | 294 ft | |||
| 03-5월 | 01:30 | n/a | 320° | 13 kt | Missing | 12° | 53° | 9° | 48° | 82% | 1011 mb | 294 ft | |||
| 03-5월 | 00:30 | n/a | 310° | 13 kt | Missing | 12° | 53° | 9° | 48° | 82% | 1011 mb | 294 ft | |||
| 02-5월 | 23:30 | n/a | 320° | 16 kt | Missing | 12° | 53° | 9° | 48° | 82% | 1011 mb | 294 ft | |||
| 02-5월 | 22:30 | n/a | 320° | 16 kt | Missing | 12° | 53° | 9° | 48° | 82% | 1012 mb | 265 ft | |||
| 02-5월 | 21:30 | n/a | 320° | 16 kt | Missing | 13° | 55° | 9° | 48° | 77% | 1011 mb | 414 ft | |||
| 02-5월 | 20:30 | n/a | 310° | 15 kt | Missing | 13° | 55° | 9° | 48° | 77% | 1011 mb | 414 ft | |||
| 02-5월 | 19:30 | n/a | 310° | 13 kt | Missing | 14° | 57° | 8° | 46° | 67% | 1011 mb | 534 ft | |||
| 02-5월 | 18:30 | n/a | 310° | 14 kt | Missing | 15° | 59° | 8° | 46° | 63% | 1010 mb | 684 ft | |||
| 02-5월 | 17:30 | n/a | 310° | 13 kt | Missing | 15° | 59° | 6° | 42° | 55% | 1010 mb | 684 ft | |||
| 02-5월 | 16:31 | n/a | 300° | 15 kt | Missing | 17° | 62° | 4° | 39° | 42% | 1009 mb | 953 ft | Wind gusting to 25 KT | ||
| 02-5월 | 15:30 | n/a | 300° | 17 kt | Missing | 18° | 64° | 5° | 41° | 42% | 1009 mb | 1,073 ft | |||
| 02-5월 | 14:30 | n/a | 300° | 15 kt | Missing | 19° | 66° | 9° | 48° | 52% | 1008 mb | 1,223 ft | Wind gusting to 26 KT |
로그인
| 귀하의 브라우저는 지원되지 않습니다.. 브라우저를 업그레이드하세요 |
